createdAt,value
2017-12-17T00:00:15.299Z,20.08
2017-12-17T00:00:45.294Z,20.03
2017-12-17T00:01:15.299Z,20.07
2017-12-17T00:01:45.297Z,20.00
2017-12-17T00:02:15.303Z,20.04
2017-12-17T00:02:45.305Z,20.07
2017-12-17T00:03:15.312Z,20.03
2017-12-17T00:03:45.318Z,20.04
2017-12-17T00:04:15.304Z,20.08
2017-12-17T00:04:45.307Z,20.04
2017-12-17T00:05:15.311Z,20.00
2017-12-17T00:05:45.314Z,20.11
2017-12-17T00:06:15.320Z,20.07
2017-12-17T00:06:45.321Z,20.03
2017-12-17T00:07:15.319Z,20.02
2017-12-17T00:07:45.314Z,20.02
2017-12-17T00:08:15.315Z,20.02
2017-12-17T00:08:45.326Z,20.10
2017-12-17T00:09:15.328Z,20.03
2017-12-17T00:09:45.323Z,19.99
2017-12-17T00:10:15.326Z,20.07
2017-12-17T00:10:45.329Z,20.11
2017-12-17T00:11:15.332Z,19.99
2017-12-17T00:11:45.325Z,20.03
2017-12-17T00:12:15.328Z,20.04
2017-12-17T00:12:45.339Z,20.03
2017-12-17T00:13:15.332Z,20.02
2017-12-17T00:13:45.341Z,19.96
2017-12-17T00:14:15.344Z,19.97
2017-12-17T00:14:45.346Z,20.03
2017-12-17T00:15:15.340Z,20.07
2017-12-17T00:15:45.339Z,20.07
2017-12-17T00:16:15.349Z,20.02
2017-12-17T00:16:45.347Z,20.03
2017-12-17T00:17:15.342Z,20.03
2017-12-17T00:17:45.342Z,20.03
2017-12-17T00:18:15.344Z,19.99
2017-12-17T00:18:45.351Z,20.11
2017-12-17T00:19:15.352Z,20.03
2017-12-17T00:19:45.360Z,20.03
2017-12-17T00:20:15.350Z,19.99
2017-12-17T00:20:45.358Z,20.00
2017-12-17T00:21:15.363Z,20.03
2017-12-17T00:21:45.361Z,19.99
2017-12-17T00:22:15.362Z,20.04
2017-12-17T00:22:45.364Z,20.02
2017-12-17T00:23:15.363Z,20.02
2017-12-17T00:23:45.367Z,19.99
2017-12-17T00:24:15.433Z,20.08
2017-12-17T00:24:45.375Z,20.08
2017-12-17T00:25:15.367Z,19.99
2017-12-17T00:25:45.373Z,20.10
2017-12-17T00:26:15.379Z,19.99
2017-12-17T00:26:45.375Z,20.03
2017-12-17T00:27:15.374Z,20.11
2017-12-17T00:27:45.374Z,20.07
2017-12-17T00:28:15.384Z,20.04
2017-12-17T00:28:45.383Z,19.99
2017-12-17T00:29:15.382Z,20.08
2017-12-17T00:29:45.385Z,20.02
2017-12-17T00:30:15.382Z,20.02
2017-12-17T00:30:45.392Z,19.97
2017-12-17T00:31:15.383Z,19.99
2017-12-17T00:31:45.389Z,20.07
2017-12-17T00:32:15.393Z,20.00
2017-12-17T00:32:45.391Z,20.02
2017-12-17T00:33:15.401Z,20.00
2017-12-17T00:33:45.396Z,19.99
2017-12-17T00:34:15.402Z,19.97
2017-12-17T00:34:45.393Z,19.96
2017-12-17T00:35:15.407Z,20.02
2017-12-17T00:35:45.407Z,20.02
2017-12-17T00:36:15.406Z,20.02
2017-12-17T00:36:45.401Z,19.99
2017-12-17T00:37:15.463Z,20.03
2017-12-17T00:37:45.409Z,19.99
2017-12-17T00:38:15.414Z,20.03
2017-12-17T00:38:45.409Z,20.02
2017-12-17T00:39:15.412Z,20.02
2017-12-17T00:39:45.413Z,19.99
2017-12-17T00:40:15.414Z,20.02
2017-12-17T00:40:45.422Z,20.02
2017-12-17T00:41:15.415Z,20.00
2017-12-17T00:41:45.431Z,19.99
2017-12-17T00:42:15.421Z,20.00
2017-12-17T00:42:45.429Z,19.96
2017-12-17T00:43:15.425Z,20.07
2017-12-17T00:43:45.424Z,19.97
2017-12-17T00:44:15.428Z,20.00
2017-12-17T00:44:45.432Z,20.02
2017-12-17T00:45:15.431Z,20.08
2017-12-17T00:45:45.427Z,20.00
2017-12-17T00:46:15.428Z,20.10
2017-12-17T00:46:45.430Z,20.07
2017-12-17T00:47:15.435Z,19.99
2017-12-17T00:47:45.443Z,20.00
2017-12-17T00:48:15.444Z,19.96
2017-12-17T00:48:45.445Z,19.96
2017-12-17T00:49:15.443Z,20.00
2017-12-17T00:49:45.440Z,20.04
2017-12-17T00:50:15.443Z,20.00
2017-12-17T00:50:45.443Z,19.99
2017-12-17T00:51:15.448Z,20.03
2017-12-17T00:51:45.448Z,20.08
2017-12-17T00:52:15.444Z,19.99
2017-12-17T00:52:45.450Z,20.02
2017-12-17T00:53:15.451Z,20.00
2017-12-17T00:53:45.450Z,20.07
2017-12-17T00:54:15.489Z,20.00
2017-12-17T00:54:45.457Z,20.08
2017-12-17T00:55:15.459Z,20.04
2017-12-17T00:55:45.474Z,20.02
2017-12-17T00:56:15.463Z,20.02
2017-12-17T00:56:45.468Z,20.03
2017-12-17T00:57:15.463Z,20.02
2017-12-17T00:57:45.473Z,20.04
2017-12-17T00:58:15.470Z,20.02
2017-12-17T00:58:45.468Z,19.97
2017-12-17T00:59:15.473Z,20.04
2017-12-17T00:59:45.472Z,20.00
2017-12-17T01:00:15.478Z,20.02
2017-12-17T01:00:45.475Z,20.00
2017-12-17T01:01:15.480Z,19.97
2017-12-17T01:01:45.483Z,20.03
2017-12-17T01:02:15.490Z,19.97
2017-12-17T01:02:45.490Z,19.99
2017-12-17T01:03:15.481Z,20.03
2017-12-17T01:03:45.483Z,19.97
2017-12-17T01:04:15.533Z,20.03
2017-12-17T01:04:45.485Z,20.03
2017-12-17T01:05:15.495Z,20.00
2017-12-17T01:05:45.491Z,20.03
2017-12-17T01:06:15.495Z,19.96
2017-12-17T01:06:45.494Z,20.02
2017-12-17T01:07:15.495Z,20.03
2017-12-17T01:07:45.504Z,20.04
2017-12-17T01:08:15.496Z,19.97
2017-12-17T01:08:45.496Z,19.97
2017-12-17T01:09:15.496Z,20.00
2017-12-17T01:09:45.510Z,19.97
2017-12-17T01:10:15.508Z,20.07
2017-12-17T01:10:45.503Z,19.97
2017-12-17T01:11:15.507Z,20.00
2017-12-17T01:11:45.504Z,19.96
2017-12-17T01:12:15.510Z,20.07
2017-12-17T01:12:45.508Z,20.07
2017-12-17T01:13:15.507Z,19.96
2017-12-17T01:13:45.510Z,20.03
2017-12-17T01:14:15.515Z,19.99
2017-12-17T01:14:45.512Z,19.99
2017-12-17T01:15:15.520Z,19.99
2017-12-17T01:15:45.516Z,20.03
2017-12-17T01:16:15.535Z,20.02
2017-12-17T01:16:45.522Z,19.96
2017-12-17T01:17:15.527Z,19.99
2017-12-17T01:17:45.518Z,20.04
2017-12-17T01:18:15.525Z,20.03
2017-12-17T01:18:45.529Z,19.99
2017-12-17T01:19:15.533Z,20.03
2017-12-17T01:19:45.531Z,19.96
2017-12-17T01:20:15.540Z,20.03
2017-12-17T01:20:45.530Z,19.99
2017-12-17T01:21:15.536Z,19.93
2017-12-17T01:21:45.530Z,19.96
2017-12-17T01:22:15.545Z,19.97
2017-12-17T01:22:45.535Z,20.03
2017-12-17T01:23:15.535Z,20.02
2017-12-17T01:23:45.545Z,20.07
2017-12-17T01:24:15.540Z,20.03
2017-12-17T01:24:45.538Z,19.97
2017-12-17T01:25:15.552Z,20.02
2017-12-17T01:25:45.542Z,20.00
2017-12-17T01:26:15.591Z,20.02
2017-12-17T01:26:45.556Z,20.03
2017-12-17T01:27:15.556Z,19.99
2017-12-17T01:27:45.548Z,19.97
2017-12-17T01:28:15.554Z,20.07
2017-12-17T01:28:45.559Z,20.03
2017-12-17T01:29:15.552Z,19.99
2017-12-17T01:29:45.557Z,19.99
2017-12-17T01:30:15.557Z,19.97
2017-12-17T01:30:45.579Z,19.99
2017-12-17T01:31:15.561Z,20.08
2017-12-17T01:31:45.565Z,19.97
2017-12-17T01:32:15.569Z,19.99
2017-12-17T01:32:45.568Z,19.97
2017-12-17T01:33:15.584Z,19.94
2017-12-17T01:33:45.577Z,19.97
2017-12-17T01:34:15.574Z,19.99
2017-12-17T01:34:45.582Z,19.99
2017-12-17T01:35:15.576Z,19.99
2017-12-17T01:35:45.579Z,19.96
2017-12-17T01:36:15.580Z,20.03
2017-12-17T01:36:45.584Z,19.97
2017-12-17T01:37:15.586Z,20.03
2017-12-17T01:37:45.590Z,19.94
2017-12-17T01:38:15.588Z,20.00
2017-12-17T01:38:45.579Z,20.04
2017-12-17T01:39:15.598Z,20.03
2017-12-17T01:39:45.583Z,19.99
2017-12-17T01:40:15.595Z,20.00
2017-12-17T01:40:45.585Z,20.03
2017-12-17T01:41:15.588Z,19.99
2017-12-17T01:41:45.601Z,19.99
2017-12-17T01:42:15.595Z,19.97
2017-12-17T01:42:45.591Z,20.04
2017-12-17T01:43:15.607Z,19.99
2017-12-17T01:43:45.604Z,19.99
2017-12-17T01:44:15.607Z,19.97
2017-12-17T01:44:45.607Z,19.97
2017-12-17T01:45:15.605Z,19.99
2017-12-17T01:45:45.610Z,19.97
2017-12-17T01:46:15.611Z,20.00
2017-12-17T01:46:45.611Z,20.02
2017-12-17T01:47:15.609Z,20.00
2017-12-17T01:47:45.608Z,19.96
2017-12-17T01:48:15.606Z,19.97
2017-12-17T01:48:45.621Z,20.03
2017-12-17T01:49:15.618Z,19.97
2017-12-17T01:49:45.621Z,20.04
2017-12-17T01:50:15.613Z,19.99
2017-12-17T01:50:45.634Z,20.00
2017-12-17T01:51:15.619Z,19.99
2017-12-17T01:51:45.627Z,19.93
2017-12-17T01:52:15.625Z,19.99
2017-12-17T01:52:45.626Z,19.99
2017-12-17T01:53:15.630Z,19.99
2017-12-17T01:53:45.631Z,19.96
2017-12-17T01:54:15.633Z,19.97
2017-12-17T01:54:45.626Z,20.00
2017-12-17T01:55:15.634Z,19.97
2017-12-17T01:55:45.635Z,20.04
2017-12-17T01:56:15.635Z,20.00
2017-12-17T01:56:45.649Z,19.96
2017-12-17T01:57:15.632Z,19.92
2017-12-17T01:57:45.637Z,19.97
2017-12-17T01:58:15.645Z,19.92
2017-12-17T01:58:45.644Z,20.00
2017-12-17T01:59:15.647Z,19.99
2017-12-17T01:59:45.647Z,19.99
2017-12-17T02:00:15.651Z,20.00
2017-12-17T02:00:45.653Z,19.97
2017-12-17T02:01:15.647Z,19.93
2017-12-17T02:01:45.651Z,19.87
2017-12-17T02:02:15.647Z,19.99
2017-12-17T02:02:45.654Z,20.00
2017-12-17T02:03:15.655Z,20.02
2017-12-17T02:03:45.658Z,20.03
2017-12-17T02:04:15.657Z,19.97
2017-12-17T02:04:45.659Z,19.89
2017-12-17T02:05:15.661Z,19.96
2017-12-17T02:05:45.670Z,20.00
2017-12-17T02:06:15.672Z,20.02
2017-12-17T02:06:45.667Z,19.92
2017-12-17T02:07:15.672Z,19.99
2017-12-17T02:07:45.670Z,19.99
2017-12-17T02:08:15.668Z,20.00
2017-12-17T02:08:45.672Z,19.97
2017-12-17T02:09:15.672Z,19.96
2017-12-17T02:09:45.674Z,20.02
2017-12-17T02:10:15.677Z,20.03
2017-12-17T02:10:45.673Z,19.92
2017-12-17T02:11:15.674Z,20.04
2017-12-17T02:11:45.684Z,20.03
2017-12-17T02:12:15.680Z,19.89
2017-12-17T02:12:45.681Z,19.90
2017-12-17T02:13:15.683Z,20.03
2017-12-17T02:13:45.680Z,19.87
2017-12-17T02:14:15.689Z,19.99
2017-12-17T02:14:45.689Z,19.90
2017-12-17T02:15:15.696Z,19.97
2017-12-17T02:15:45.693Z,19.94
2017-12-17T02:16:15.691Z,20.03
2017-12-17T02:16:45.696Z,20.02
2017-12-17T02:17:15.695Z,19.87
2017-12-17T02:17:45.696Z,19.89
2017-12-17T02:18:15.696Z,20.00
2017-12-17T02:18:45.701Z,19.87
2017-12-17T02:19:15.700Z,20.00
2017-12-17T02:19:45.698Z,19.99
2017-12-17T02:20:15.702Z,19.94
2017-12-17T02:20:45.709Z,19.99
2017-12-17T02:21:15.714Z,19.90
2017-12-17T02:21:45.722Z,20.02
2017-12-17T02:22:15.710Z,20.00
2017-12-17T02:22:45.707Z,19.87
2017-12-17T02:23:15.715Z,19.90
2017-12-17T02:23:45.746Z,19.92
2017-12-17T02:24:15.712Z,19.87
2017-12-17T02:24:45.712Z,19.92
2017-12-17T02:25:15.713Z,19.87
2017-12-17T02:25:45.725Z,19.87
2017-12-17T02:26:15.741Z,19.93
2017-12-17T02:26:45.730Z,19.89
2017-12-17T02:27:15.732Z,19.90
2017-12-17T02:27:45.723Z,20.03
2017-12-17T02:28:15.727Z,19.99
2017-12-17T02:28:45.728Z,19.87
2017-12-17T02:29:15.731Z,19.89
2017-12-17T02:29:45.737Z,19.90
2017-12-17T02:30:15.737Z,19.87
2017-12-17T02:30:45.744Z,19.92
2017-12-17T02:31:15.742Z,19.93
2017-12-17T02:31:45.760Z,19.90
2017-12-17T02:32:15.742Z,19.94
2017-12-17T02:32:45.744Z,20.00
2017-12-17T02:33:15.735Z,19.90
2017-12-17T02:33:45.743Z,19.99
2017-12-17T02:34:15.746Z,19.90
2017-12-17T02:34:45.740Z,20.03
2017-12-17T02:35:15.748Z,19.90
2017-12-17T02:35:45.756Z,19.89
2017-12-17T02:36:15.748Z,19.85
2017-12-17T02:36:45.752Z,19.89
2017-12-17T02:37:15.754Z,19.90
2017-12-17T02:37:45.769Z,19.92
2017-12-17T02:38:15.757Z,19.96
2017-12-17T02:38:45.766Z,19.92
2017-12-17T02:39:15.753Z,19.99
2017-12-17T02:39:45.760Z,19.92
2017-12-17T02:40:15.761Z,19.92
2017-12-17T02:40:45.768Z,19.85
2017-12-17T02:41:15.758Z,19.90
2017-12-17T02:41:45.766Z,19.89
2017-12-17T02:42:15.802Z,19.90
2017-12-17T02:42:45.769Z,19.93
2017-12-17T02:43:15.773Z,19.92
2017-12-17T02:43:45.805Z,19.85
2017-12-17T02:44:15.784Z,19.92
2017-12-17T02:44:45.773Z,19.99
2017-12-17T02:45:15.786Z,19.84
2017-12-17T02:45:45.771Z,19.90
2017-12-17T02:46:15.777Z,19.87
2017-12-17T02:46:45.774Z,19.92
2017-12-17T02:47:15.791Z,19.99
2017-12-17T02:47:45.784Z,19.99
2017-12-17T02:48:15.785Z,19.92
2017-12-17T02:48:45.784Z,19.92
2017-12-17T02:49:15.781Z,19.92
2017-12-17T02:49:45.809Z,19.93
2017-12-17T02:50:15.792Z,19.92
2017-12-17T02:50:45.795Z,19.90
2017-12-17T02:51:15.793Z,19.87
2017-12-17T02:51:45.798Z,19.87
2017-12-17T02:52:15.797Z,19.92
2017-12-17T02:52:45.796Z,19.87
2017-12-17T02:53:15.792Z,19.94
2017-12-17T02:53:45.802Z,19.90
2017-12-17T02:54:15.802Z,19.93
2017-12-17T02:54:45.803Z,19.92
2017-12-17T02:55:15.800Z,19.90
2017-12-17T02:55:45.803Z,19.90
2017-12-17T02:56:15.802Z,19.87
2017-12-17T02:56:45.808Z,19.85
2017-12-17T02:57:15.823Z,19.90
2017-12-17T02:57:45.814Z,19.87
2017-12-17T02:58:15.807Z,19.90
2017-12-17T02:58:45.817Z,19.87
2017-12-17T02:59:15.813Z,19.87
2017-12-17T02:59:45.814Z,19.89
2017-12-17T03:00:15.822Z,19.94
2017-12-17T03:00:45.818Z,19.84
2017-12-17T03:01:15.819Z,19.90
2017-12-17T03:01:45.822Z,19.92
2017-12-17T03:02:15.822Z,19.92
2017-12-17T03:02:45.822Z,19.92
2017-12-17T03:03:15.827Z,19.89
2017-12-17T03:03:45.837Z,19.87
2017-12-17T03:04:15.834Z,19.87
2017-12-17T03:04:45.832Z,19.90
2017-12-17T03:05:15.844Z,19.87
2017-12-17T03:05:45.838Z,19.92
2017-12-17T03:06:15.835Z,19.90
2017-12-17T03:06:45.833Z,19.92
2017-12-17T03:07:15.839Z,19.93
2017-12-17T03:07:45.839Z,19.84
2017-12-17T03:08:15.845Z,19.87
2017-12-17T03:08:45.836Z,19.89
2017-12-17T03:09:15.842Z,19.87
2017-12-17T03:09:45.846Z,19.87
2017-12-17T03:10:15.846Z,19.92
2017-12-17T03:10:45.850Z,19.87
2017-12-17T03:11:15.854Z,19.87
2017-12-17T03:11:45.855Z,19.90
2017-12-17T03:12:15.851Z,19.90
2017-12-17T03:12:45.862Z,19.87
2017-12-17T03:13:15.856Z,19.85
2017-12-17T03:13:45.852Z,19.94
2017-12-17T03:14:15.854Z,19.90
2017-12-17T03:14:45.855Z,19.89
2017-12-17T03:15:15.854Z,19.87
2017-12-17T03:15:45.854Z,19.93
2017-12-17T03:16:15.866Z,19.94
2017-12-17T03:16:45.861Z,19.96
2017-12-17T03:17:15.862Z,19.90
2017-12-17T03:17:45.865Z,19.85
2017-12-17T03:18:15.873Z,19.90
2017-12-17T03:18:45.868Z,19.92
2017-12-17T03:19:15.876Z,19.87
2017-12-17T03:19:45.870Z,19.89
2017-12-17T03:20:15.874Z,19.90
2017-12-17T03:20:45.871Z,19.93
2017-12-17T03:21:15.881Z,19.90
2017-12-17T03:21:45.879Z,19.89
2017-12-17T03:22:15.878Z,19.92
2017-12-17T03:22:45.886Z,19.92
2017-12-17T03:23:15.893Z,19.90
2017-12-17T03:23:45.880Z,19.87
2017-12-17T03:24:15.880Z,19.89
2017-12-17T03:24:45.892Z,19.87
2017-12-17T03:25:15.881Z,19.89
2017-12-17T03:25:45.905Z,19.89
2017-12-17T03:26:15.894Z,19.89
2017-12-17T03:26:45.895Z,19.90
2017-12-17T03:27:15.888Z,19.90
2017-12-17T03:27:45.900Z,19.92
2017-12-17T03:28:15.900Z,19.89
2017-12-17T03:28:45.899Z,19.90
2017-12-17T03:29:15.904Z,19.92
2017-12-17T03:29:45.900Z,19.92
2017-12-17T03:30:15.917Z,19.89
2017-12-17T03:30:45.909Z,19.89
2017-12-17T03:31:15.906Z,19.90
2017-12-17T03:31:45.910Z,19.92
2017-12-17T03:32:15.908Z,19.89
2017-12-17T03:32:45.915Z,19.92
2017-12-17T03:33:15.915Z,19.92
2017-12-17T03:33:45.906Z,19.92
2017-12-17T03:34:15.911Z,19.85
2017-12-17T03:34:45.909Z,19.90
2017-12-17T03:35:15.912Z,19.92
2017-12-17T03:35:45.921Z,19.87
2017-12-17T03:36:15.933Z,19.90
2017-12-17T03:36:45.923Z,19.87
2017-12-17T03:37:15.923Z,19.93
2017-12-17T03:37:45.930Z,19.89
2017-12-17T03:38:15.930Z,19.90
2017-12-17T03:38:45.926Z,19.92
2017-12-17T03:39:15.933Z,19.93
2017-12-17T03:39:45.934Z,19.87
2017-12-17T03:40:15.936Z,19.85
2017-12-17T03:40:45.931Z,19.92
2017-12-17T03:41:15.935Z,19.93
2017-12-17T03:41:45.932Z,19.93
2017-12-17T03:42:15.934Z,19.84
2017-12-17T03:42:45.946Z,19.90
2017-12-17T03:43:15.947Z,19.89
2017-12-17T03:43:45.940Z,19.89
2017-12-17T03:44:15.960Z,19.90
2017-12-17T03:44:45.941Z,19.93
2017-12-17T03:45:15.939Z,19.90
2017-12-17T03:45:45.951Z,19.89
2017-12-17T03:46:15.942Z,19.90
2017-12-17T03:46:45.944Z,19.92
2017-12-17T03:47:15.956Z,19.89
2017-12-17T03:47:45.964Z,19.90
2017-12-17T03:48:15.948Z,19.90
2017-12-17T03:48:45.948Z,19.85
2017-12-17T03:49:15.955Z,19.89
2017-12-17T03:49:45.957Z,19.82
2017-12-17T03:50:15.958Z,19.90
2017-12-17T03:50:45.953Z,19.87
2017-12-17T03:51:15.957Z,19.93
2017-12-17T03:51:45.957Z,19.85
2017-12-17T03:52:15.958Z,19.85
2017-12-17T03:52:45.970Z,19.87
2017-12-17T03:53:15.972Z,19.90
2017-12-17T03:53:45.967Z,19.85
2017-12-17T03:54:15.974Z,19.85
2017-12-17T03:54:45.976Z,19.87
2017-12-17T03:55:15.973Z,19.92
2017-12-17T03:55:45.967Z,19.92
2017-12-17T03:56:15.969Z,19.85
2017-12-17T03:56:45.972Z,19.90
2017-12-17T03:57:15.978Z,19.87
2017-12-17T03:57:45.978Z,19.89
2017-12-17T03:58:15.985Z,19.93
2017-12-17T03:58:46.010Z,19.87
2017-12-17T03:59:15.980Z,19.89
2017-12-17T03:59:45.982Z,19.90
2017-12-17T04:00:15.991Z,19.92
2017-12-17T04:00:45.986Z,19.87
2017-12-17T04:01:15.987Z,19.93
2017-12-17T04:01:45.988Z,19.90
2017-12-17T04:02:15.986Z,19.87
2017-12-17T04:02:46.006Z,19.89
2017-12-17T04:03:15.993Z,19.90
2017-12-17T04:03:45.990Z,19.92
2017-12-17T04:04:15.996Z,19.79
2017-12-17T04:04:45.992Z,19.93
2017-12-17T04:05:16.001Z,19.84
2017-12-17T04:05:46.011Z,19.85
2017-12-17T04:06:16.005Z,19.90
2017-12-17T04:06:46.003Z,19.90
2017-12-17T04:07:16.008Z,19.89
2017-12-17T04:07:46.006Z,19.84
2017-12-17T04:08:16.003Z,19.89
2017-12-17T04:08:46.004Z,19.90
2017-12-17T04:09:16.013Z,19.85
2017-12-17T04:09:46.011Z,19.85
2017-12-17T04:10:16.014Z,19.84
2017-12-17T04:10:46.015Z,19.87
2017-12-17T04:11:16.016Z,19.89
2017-12-17T04:11:46.015Z,19.90
2017-12-17T04:12:16.026Z,19.93
2017-12-17T04:12:46.016Z,19.84
2017-12-17T04:13:16.021Z,19.81
2017-12-17T04:13:46.028Z,19.85
2017-12-17T04:14:16.024Z,19.89
2017-12-17T04:14:46.028Z,19.93
2017-12-17T04:15:16.034Z,19.90
2017-12-17T04:15:46.035Z,19.85
2017-12-17T04:16:16.035Z,19.84
2017-12-17T04:16:46.029Z,19.89
2017-12-17T04:17:16.027Z,19.90
2017-12-17T04:17:46.035Z,19.89
2017-12-17T04:18:16.043Z,19.89
2017-12-17T04:18:46.037Z,19.89
2017-12-17T04:19:16.040Z,19.89
2017-12-17T04:19:46.046Z,19.90
2017-12-17T04:20:16.036Z,19.84
2017-12-17T04:20:46.049Z,19.82
2017-12-17T04:21:16.050Z,19.90
2017-12-17T04:21:46.044Z,19.87
2017-12-17T04:22:16.043Z,19.85
2017-12-17T04:22:46.056Z,19.87
2017-12-17T04:23:16.057Z,19.89
2017-12-17T04:23:46.051Z,19.87
2017-12-17T04:24:16.051Z,19.82
2017-12-17T04:24:46.053Z,19.89
2017-12-17T04:25:16.061Z,19.89
2017-12-17T04:25:46.052Z,19.89
2017-12-17T04:26:16.065Z,19.87
2017-12-17T04:26:46.054Z,19.90
2017-12-17T04:27:16.067Z,19.92
2017-12-17T04:27:46.064Z,19.89
2017-12-17T04:28:16.068Z,19.87
2017-12-17T04:28:46.061Z,19.93
2017-12-17T04:29:16.065Z,19.81
2017-12-17T04:29:46.075Z,19.84
2017-12-17T04:30:16.078Z,19.85
2017-12-17T04:30:46.073Z,19.89
2017-12-17T04:31:16.073Z,19.90
2017-12-17T04:31:46.070Z,19.81
2017-12-17T04:32:16.081Z,19.85
2017-12-17T04:32:46.078Z,19.85
2017-12-17T04:33:16.072Z,19.89
2017-12-17T04:33:46.073Z,19.85
2017-12-17T04:34:16.080Z,19.89
2017-12-17T04:34:46.083Z,19.92
2017-12-17T04:35:16.079Z,19.79
2017-12-17T04:35:46.086Z,19.85
2017-12-17T04:36:16.089Z,19.90
2017-12-17T04:36:46.088Z,19.85
2017-12-17T04:37:16.092Z,19.89
2017-12-17T04:37:46.086Z,19.84
2017-12-17T04:38:16.090Z,19.81
2017-12-17T04:38:46.109Z,19.85
2017-12-17T04:39:16.097Z,19.89
2017-12-17T04:39:46.124Z,19.92
2017-12-17T04:40:16.101Z,19.84
2017-12-17T04:40:46.097Z,19.90
2017-12-17T04:41:16.095Z,19.89
2017-12-17T04:41:46.106Z,19.85
2017-12-17T04:42:16.097Z,19.85
2017-12-17T04:42:46.105Z,19.89
2017-12-17T04:43:16.108Z,19.87
2017-12-17T04:43:46.108Z,19.87
2017-12-17T04:44:16.107Z,19.87
2017-12-17T04:44:46.109Z,19.84
2017-12-17T04:45:16.105Z,19.81
2017-12-17T04:45:46.176Z,19.92
2017-12-17T04:46:16.168Z,19.87
2017-12-17T04:46:46.123Z,19.87
2017-12-17T04:47:16.124Z,19.84
2017-12-17T04:47:46.117Z,19.84
2017-12-17T04:48:16.124Z,19.85
2017-12-17T04:48:46.123Z,19.89
2017-12-17T04:49:16.118Z,19.89
2017-12-17T04:49:46.128Z,19.89
2017-12-17T04:50:16.138Z,19.90
2017-12-17T04:50:46.128Z,19.84
2017-12-17T04:51:16.131Z,19.85
2017-12-17T04:51:46.132Z,19.85
2017-12-17T04:52:16.137Z,19.92
2017-12-17T04:52:46.129Z,19.87
2017-12-17T04:53:16.134Z,19.85
2017-12-17T04:53:46.132Z,19.90
2017-12-17T04:54:16.137Z,19.89
2017-12-17T04:54:46.145Z,19.85
2017-12-17T04:55:16.140Z,19.85
2017-12-17T04:55:46.141Z,19.85
2017-12-17T04:56:16.142Z,19.87
2017-12-17T04:56:46.144Z,19.85
2017-12-17T04:57:16.144Z,19.78
2017-12-17T04:57:46.153Z,19.92
2017-12-17T04:58:16.148Z,19.85
2017-12-17T04:58:46.150Z,19.90
2017-12-17T04:59:16.155Z,19.87
2017-12-17T04:59:46.155Z,19.89
2017-12-17T05:00:16.159Z,19.89
2017-12-17T05:00:46.155Z,19.85
2017-12-17T05:01:16.161Z,19.85
2017-12-17T05:01:46.157Z,19.87
2017-12-17T05:02:16.152Z,19.84
2017-12-17T05:02:46.164Z,19.85
2017-12-17T05:03:16.167Z,19.82
2017-12-17T05:03:46.163Z,19.82
2017-12-17T05:04:16.163Z,19.85
2017-12-17T05:04:46.169Z,19.82
2017-12-17T05:05:16.161Z,19.89
2017-12-17T05:05:46.164Z,19.87
2017-12-17T05:06:16.165Z,19.89
2017-12-17T05:06:46.173Z,19.85
2017-12-17T05:07:16.168Z,19.89
2017-12-17T05:07:46.171Z,19.89
2017-12-17T05:08:16.168Z,19.84
2017-12-17T05:08:46.179Z,19.87
2017-12-17T05:09:16.177Z,19.85
2017-12-17T05:09:46.179Z,19.87
2017-12-17T05:10:16.175Z,19.84
2017-12-17T05:10:46.189Z,19.84
2017-12-17T05:11:16.178Z,19.84
2017-12-17T05:11:46.178Z,19.87
2017-12-17T05:12:16.189Z,19.85
2017-12-17T05:12:46.187Z,19.85
2017-12-17T05:13:16.189Z,19.89
2017-12-17T05:13:46.190Z,19.81
2017-12-17T05:14:16.194Z,19.89
2017-12-17T05:14:46.197Z,19.82
2017-12-17T05:15:16.189Z,19.89
2017-12-17T05:15:46.197Z,19.85
2017-12-17T05:16:16.195Z,19.84
2017-12-17T05:16:46.192Z,19.92
2017-12-17T05:17:16.201Z,19.85
2017-12-17T05:17:46.203Z,19.87
2017-12-17T05:18:16.202Z,19.81
2017-12-17T05:18:46.198Z,19.84
2017-12-17T05:19:16.206Z,19.87
2017-12-17T05:19:46.203Z,19.84
2017-12-17T05:20:16.210Z,19.77
2017-12-17T05:20:46.208Z,19.90
2017-12-17T05:21:16.213Z,19.87
2017-12-17T05:21:46.259Z,19.84
2017-12-17T05:22:16.213Z,19.90
2017-12-17T05:22:46.210Z,19.89
2017-12-17T05:23:16.218Z,19.87
2017-12-17T05:23:46.211Z,19.82
2017-12-17T05:24:16.217Z,19.85
2017-12-17T05:24:46.225Z,19.82
2017-12-17T05:25:16.221Z,19.84
2017-12-17T05:25:46.221Z,19.84
2017-12-17T05:26:16.224Z,19.85
2017-12-17T05:26:46.232Z,19.90
2017-12-17T05:27:16.235Z,19.87
2017-12-17T05:27:46.228Z,19.90
2017-12-17T05:28:16.232Z,19.84
2017-12-17T05:28:46.231Z,19.81
2017-12-17T05:29:16.240Z,19.94
2017-12-17T05:29:46.238Z,19.79
2017-12-17T05:30:16.236Z,19.82
2017-12-17T05:30:46.241Z,19.92
2017-12-17T05:31:16.238Z,19.92
2017-12-17T05:31:46.245Z,19.82
2017-12-17T05:32:16.242Z,19.89
2017-12-17T05:32:46.242Z,19.81
2017-12-17T05:33:16.246Z,19.82
2017-12-17T05:33:46.246Z,19.90
2017-12-17T05:34:16.252Z,19.82
2017-12-17T05:34:46.248Z,19.84
2017-12-17T05:35:16.249Z,19.82
2017-12-17T05:35:46.246Z,19.82
2017-12-17T05:36:16.250Z,19.79
2017-12-17T05:36:46.251Z,19.84
2017-12-17T05:37:16.257Z,19.82
2017-12-17T05:37:46.264Z,19.82
2017-12-17T05:38:16.265Z,19.87
2017-12-17T05:38:46.264Z,19.77
2017-12-17T05:39:16.265Z,19.78
2017-12-17T05:39:46.281Z,19.89
2017-12-17T05:40:16.267Z,19.87
2017-12-17T05:40:46.321Z,19.78
2017-12-17T05:41:16.266Z,19.85
2017-12-17T05:41:46.264Z,19.90
2017-12-17T05:42:16.264Z,19.87
2017-12-17T05:42:46.270Z,19.81
2017-12-17T05:43:16.273Z,19.82
2017-12-17T05:43:46.270Z,19.89
2017-12-17T05:44:16.331Z,19.82
2017-12-17T05:44:46.280Z,19.82
2017-12-17T05:45:16.278Z,19.90
2017-12-17T05:45:46.283Z,19.81
2017-12-17T05:46:16.285Z,19.89
2017-12-17T05:46:46.276Z,19.87
2017-12-17T05:47:16.283Z,19.90
2017-12-17T05:47:46.282Z,19.87
2017-12-17T05:48:16.300Z,19.81
2017-12-17T05:48:46.288Z,19.82
2017-12-17T05:49:16.292Z,19.82
2017-12-17T05:49:46.291Z,19.81
2017-12-17T05:50:16.285Z,19.87
2017-12-17T05:50:46.291Z,19.92
2017-12-17T05:51:16.292Z,19.89
2017-12-17T05:51:46.289Z,19.87
2017-12-17T05:52:16.296Z,19.87
2017-12-17T05:52:46.306Z,19.81
2017-12-17T05:53:16.298Z,19.89
2017-12-17T05:53:46.293Z,19.87
2017-12-17T05:54:16.304Z,19.84
2017-12-17T05:54:46.304Z,19.85
2017-12-17T05:55:16.334Z,19.75
2017-12-17T05:55:46.310Z,19.79
2017-12-17T05:56:16.305Z,19.85
2017-12-17T05:56:46.311Z,19.79
2017-12-17T05:57:16.308Z,19.79
2017-12-17T05:57:46.312Z,19.79
2017-12-17T05:58:16.308Z,19.77
2017-12-17T05:58:46.312Z,19.79
2017-12-17T05:59:16.321Z,19.81
2017-12-17T05:59:46.315Z,19.79
2017-12-17T06:00:16.312Z,19.82
2017-12-17T06:00:46.325Z,19.90
2017-12-17T06:01:16.320Z,19.81
2017-12-17T06:01:46.321Z,19.81
2017-12-17T06:02:16.330Z,19.78
2017-12-17T06:02:46.326Z,19.78
2017-12-17T06:03:16.325Z,19.84
2017-12-17T06:03:46.330Z,19.78
2017-12-17T06:04:16.333Z,19.84
2017-12-17T06:04:46.330Z,19.82
2017-12-17T06:05:16.360Z,19.87
2017-12-17T06:05:46.343Z,19.90
2017-12-17T06:06:16.332Z,19.79
2017-12-17T06:06:46.330Z,19.84
2017-12-17T06:07:16.337Z,19.78
2017-12-17T06:07:46.340Z,19.77
2017-12-17T06:08:16.334Z,19.84
2017-12-17T06:08:46.346Z,19.84
2017-12-17T06:09:16.342Z,19.85
2017-12-17T06:09:46.344Z,19.84
2017-12-17T06:10:16.348Z,19.82
2017-12-17T06:10:46.348Z,19.81
2017-12-17T06:11:16.345Z,19.78
2017-12-17T06:11:46.349Z,19.82
2017-12-17T06:12:16.344Z,19.79
2017-12-17T06:12:46.351Z,19.77
2017-12-17T06:13:16.347Z,19.81
2017-12-17T06:13:46.361Z,19.82
2017-12-17T06:14:16.362Z,19.81
2017-12-17T06:14:46.359Z,19.82
2017-12-17T06:15:16.388Z,19.81
2017-12-17T06:15:46.356Z,19.81
2017-12-17T06:16:16.364Z,19.75
2017-12-17T06:16:46.367Z,19.77
2017-12-17T06:17:16.362Z,19.77
2017-12-17T06:17:46.365Z,19.78
2017-12-17T06:18:16.369Z,19.77
2017-12-17T06:18:46.371Z,19.79
2017-12-17T06:19:16.417Z,19.74
2017-12-17T06:19:46.376Z,19.81
2017-12-17T06:20:16.377Z,19.77
2017-12-17T06:20:46.375Z,19.84
2017-12-17T06:21:16.372Z,19.81
2017-12-17T06:21:46.377Z,19.81
2017-12-17T06:22:16.376Z,19.84
2017-12-17T06:22:46.380Z,19.77
2017-12-17T06:23:16.385Z,19.81
2017-12-17T06:23:46.382Z,19.72
2017-12-17T06:24:16.387Z,19.85
2017-12-17T06:24:46.389Z,19.81
2017-12-17T06:25:16.384Z,19.79
2017-12-17T06:25:46.387Z,19.78
2017-12-17T06:26:16.386Z,19.79